EW9066 Weather Reports


Display with metric or nautical units.
time (UTC)temp
F
wind
direction
speed
MPH
gust
MPH
rain 1hr
in
rain 24hr
in
rain mn
in
humidity
%
barometer
mb
20191016090206 55 209 10.0 18.0 0.00 0.00 0.00 34 1011.7
20191016084720 55 185 10.0 18.0 0.00 0.00 0.00 32 1011.3
20191016083239 55 199 14.0 24.0 0.00 0.00 0.00 32 1011.4
20191016081656 55 191 10.0 18.0 0.00 0.00 0.00 32 1011.8
20191016080158 55 190 10.0 18.0 0.00 0.00 0.00 31 1011.7
20191016074654 56 178 10.0 19.0 0.00 0.00 0.00 30 1011.5
20191016073137 55 192 10.0 17.0 0.00 0.00 0.00 31 1011.8
20191016071635 56 202 9.0 17.0 0.00 0.00 0.00 31 1012.0
20191016070103 57 203 7.0 18.0 0.00 0.00 0.00 28 1012.0
20191016064638 57 197 9.0 19.0 0.00 0.00 0.00 27 1012.0
20191016063124 56 212 8.0 15.0 0.00 0.00 0.00 28 1012.1
20191016061604 56 197 8.0 15.0 0.00 0.00 0.00 27 1012.1
20191016060041 57 198 8.0 14.0 0.00 0.00 0.00 28 1012.4
20191016054614 56 199 4.0 9.0 0.00 0.00 0.00 29 1012.7
20191016053036 53 192 4.0 8.0 0.00 0.00 0.00 31 1012.9
20191016051613 53 192 0.0 5.0 0.00 0.00 0.00 40 1013.1
20191016050027 51 192 0.0 3.0 0.00 0.00 0.00 39 1013.1
20191016044541 51 192 0.0 0.0 0.00 0.00 0.00 43 1013.5
20191016043053 51 192 0.0 0.0 0.00 0.00 0.00 41 1013.7
20191016041520 50 192 0.0 0.0 0.00 0.00 0.00 42 1013.8
20191016040048 51 192 0.0 0.0 0.00 0.00 0.00 42 1013.8
20191016034524 51 192 0.0 0.0 0.00 0.00 0.00 43 1013.9
20191016033043 51 192 0.0 0.0 0.00 0.00 0.00 42 1013.9
20191016031513 52 192 0.0 0.0 0.00 0.00 0.00 41 1014.2
20191016030021 53 192 0.0 5.0 0.00 0.00 0.00 39 1014.2
20191016024546 53 192 2.0 7.0 0.00 0.00 0.00 37 1014.4
20191016023013 53 192 1.0 7.0 0.00 0.00 0.00 40 1014.6
20191016021506 53 192 3.0 7.0 0.00 0.00 0.00 37 1014.7
20191016020013 54 192 5.0 9.0 0.00 0.00 0.00 35 1014.8
20191016014516 54 171 1.0 5.0 0.00 0.00 0.00 35 1014.7
20191016013015 52 171 0.0 0.0 0.00 0.00 0.00 38 1014.9
20191016011504 53 171 0.0 0.0 0.00 0.00 0.00 35 1014.7
20191016010009 53 171 0.0 7.0 0.00 0.00 0.00 35 1014.8
20191016004505 54 176 1.0 8.0 0.00 0.00 0.00 34 1014.6
20191016003002 54 179 2.0 9.0 0.00 0.00 0.00 33 1014.6
20191016001723 55 188 2.0 7.0 0.00 0.00 0.00 33 1014.8
20191016000157 56 189 2.0 10.0 0.00 0.00 0.00 29 1014.9
20191015234713 56 190 3.0 9.0 0.00 0.00 0.00 30 1015.0
20191015233211 57 191 2.0 7.0 0.00 0.00 0.00 29 1015.3
20191015231705 57 194 3.0 11.0 0.00 0.00 0.00 27 1015.4
20191015230148 58 186 3.0 11.0 0.00 0.00 0.00 28 1015.7
20191015224708 59 182 1.0 11.0 0.00 0.00 0.00 28 1016.0
20191015223207 59 167 1.0 8.0 0.00 0.00 0.00 26 1016.1
20191015221640 60 152 0.0 11.0 0.00 0.00 0.00 26 1016.4
20191015220150 60 161 3.0 9.0 0.00 0.00 0.00 26 1016.5
20191015214617 59 163 1.0 8.0 0.00 0.00 0.00 24 1016.7
20191015213142 59 156 2.0 10.0 0.00 0.00 0.00 27 1016.8
20191015211622 59 148 2.0 7.0 0.00 0.00 0.00 26 1016.9
20191015210109 59 144 0.0 5.0 0.00 0.00 0.00 28 1017.2
20191015204557 58 144 2.0 12.0 0.00 0.00 0.00 28 1017.4
20191015203110 57 143 6.0 11.0 0.00 0.00 0.00 28 1017.6
20191015201637 56 143 3.0 11.0 0.00 0.00 0.00 33 1018.0
20191015200058 54 140 3.0 10.0 0.00 0.00 0.00 38 1018.3
20191015194539 53 139 5.0 11.0 0.00 0.00 0.00 41 1018.6
20191015193100 52 136 5.0 10.0 0.00 0.00 0.00 44 1019.0
20191015191528 52 132 3.0 10.0 0.00 0.00 0.00 44 1019.3
20191015190035 50 129 6.0 10.0 0.00 0.00 0.00 50 1019.4
20191015184519 50 125 3.0 8.0 0.00 0.00 0.00 50 1019.9
20191015183029 49 122 1.0 10.0 0.00 0.00 0.00 52 1020.0
20191015180152 46 69 0.0 7.0 0.00 0.00 0.00 61 1020.4
20191015174658 44 69 0.0 7.0 0.00 0.00 0.00 62 1020.7
20191015173148 44 60 0.0 5.0 0.00 0.00 0.00 62 1021.0
20191015171637 42 58 2.0 7.0 0.00 0.00 0.00 63 1021.3
20191015170054 41 57 2.0 6.0 0.00 0.00 0.00 69 1021.6
20191015164647 41 52 0.0 0.0 0.00 0.00 0.00 69 1021.6
20191015163108 39 52 1.0 5.0 0.00 0.00 0.00 71 1021.7
20191015161603 38 51 3.0 7.0 0.00 0.00 0.00 74 1021.9
20191015160125 36 51 0.0 0.0 0.00 0.00 0.00 83 1022.0
20191015154540 35 51 0.0 0.0 0.00 0.00 0.00 84 1022.2
20191015153045 33 51 0.0 0.0 0.00 0.00 0.00 86 1022.5
20191015151523 33 51 0.0 0.0 0.00 0.00 0.00 88 1022.7
20191015150016 30 51 0.0 0.0 0.00 0.00 0.00 90 1022.7
20191015144510 29 51 0.0 0.0 0.00 0.00 0.00 90 1023.0
20191015143011 28 51 0.0 0.0 0.00 0.00 0.00 90 1023.2
20191015141502 27 51 0.0 0.0 0.00 0.00 0.00 90 1023.2
20191015140152 27 51 0.0 0.0 0.00 0.00 0.00 90 1023.3
20191015134633 27 51 0.0 0.0 0.00 0.00 0.00 90 1023.5
20191015133201 27 51 0.0 0.0 0.00 0.00 0.00 90 1023.5
20191015131728 27 51 0.0 0.0 0.00 0.00 0.00 89 1023.4
20191015130214 27 51 0.0 0.0 0.00 0.00 0.00 89 1023.3
20191015124622 28 51 0.0 0.0 0.00 0.00 0.00 89 1023.4
20191015123125 29 51 0.0 0.0 0.00 0.00 0.00 89 1023.4
20191015121641 29 51 0.0 5.0 0.00 0.00 0.00 90 1023.3
20191015120213 28 51 0.0 0.0 0.00 0.00 0.00 88 1023.2
20191015114651 29 51 0.0 0.0 0.00 0.00 0.00 90 1023.2
20191015113115 29 51 0.0 0.0 0.00 0.00 0.00 89 1023.3
20191015111633 29 51 0.0 0.0 0.00 0.00 0.00 89 1023.1
20191015110124 30 51 0.0 0.0 0.00 0.00 0.00 88 1023.1
20191015104610 30 51 0.0 0.0 0.00 0.00 0.00 86 1023.3
20191015103128 31 51 0.0 0.0 0.00 0.00 0.00 86 1023.4
20191015101732 32 51 0.0 0.0 0.00 0.00 0.00 84 1023.4
20191015100124 32 51 0.0 0.0 0.00 0.00 0.00 86 1023.3
20191015094551 32 51 0.0 0.0 0.00 0.00 0.00 85 1023.3
20191015093113 33 51 0.0 0.0 0.00 0.00 0.00 84 1023.2
20191015091622 33 51 0.0 0.0 0.00 0.00 0.00 83 1023.2